createdAt,value
2022-11-10T00:02:01.687Z,28.40
2022-11-10T00:04:33.641Z,28.20
2022-11-10T00:07:05.526Z,28.10
2022-11-10T00:09:37.303Z,28.20
2022-11-10T00:12:09.630Z,29.10
2022-11-10T00:14:59.213Z,27.90
2022-11-10T00:17:30.908Z,28.80
2022-11-10T00:20:02.589Z,28.80
2022-11-10T00:22:36.086Z,30.80
2022-11-10T00:25:09.312Z,29.30
2022-11-10T00:27:41.754Z,28.20
2022-11-10T00:30:14.869Z,29.20
2022-11-10T00:32:47.682Z,28.40
2022-11-10T00:35:19.677Z,29.30
2022-11-10T00:37:53.018Z,30.60
2022-11-10T00:40:24.763Z,27.80
2022-11-10T00:42:56.373Z,28.50
2022-11-10T00:45:28.407Z,28.60
2022-11-10T00:48:00.325Z,30.80
2022-11-10T00:50:32.089Z,26.40
2022-11-10T00:53:03.955Z,28.40
2022-11-10T00:55:38.083Z,29.20
2022-11-10T00:58:10.022Z,28.50
2022-11-10T01:00:41.977Z,29.90
2022-11-10T01:03:18.508Z,25.80
2022-11-10T01:05:50.314Z,28.50
2022-11-10T01:08:21.992Z,28.30
2022-11-10T01:10:53.578Z,28.70
2022-11-10T01:13:25.536Z,27.50
2022-11-10T01:15:57.578Z,29.10
2022-11-10T01:18:29.340Z,28.10
2022-11-10T01:21:01.829Z,30.10
2022-11-10T01:23:34.797Z,27.10
2022-11-10T01:26:08.631Z,30.40
2022-11-10T01:31:14.210Z,29.90
2022-11-10T01:33:45.940Z,31.30
2022-11-10T01:36:17.718Z,33.70
2022-11-10T01:38:49.377Z,33.40
2022-11-10T01:41:21.125Z,32.80
2022-11-10T01:43:52.787Z,32.30
2022-11-10T01:46:24.486Z,31.00
2022-11-10T01:49:00.538Z,32.90
2022-11-10T01:51:36.226Z,33.20
2022-11-10T01:54:12.265Z,34.40
2022-11-10T01:56:47.005Z,34.10
2022-11-10T01:59:23.477Z,34.70
2022-11-10T02:01:59.447Z,34.50
2022-11-10T02:04:32.764Z,31.90
2022-11-10T02:07:05.694Z,34.40
2022-11-10T02:09:37.922Z,34.40
2022-11-10T02:12:10.082Z,32.90
2022-11-10T02:14:42.816Z,34.40
2022-11-10T02:17:15.370Z,33.90
2022-11-10T02:19:47.100Z,34.40
2022-11-10T02:22:18.715Z,36.00
2022-11-10T02:24:50.523Z,36.80
2022-11-10T02:27:22.229Z,36.50
2022-11-10T02:29:54.542Z,38.40
2022-11-10T02:32:26.196Z,35.80
2022-11-10T02:34:57.920Z,36.40
2022-11-10T02:37:29.778Z,34.00
2022-11-10T02:40:02.084Z,36.00
2022-11-10T02:42:33.864Z,37.90
2022-11-10T02:45:06.534Z,36.50
2022-11-10T02:47:38.208Z,37.60
2022-11-10T02:50:11.051Z,38.90
2022-11-10T02:52:42.725Z,38.80
2022-11-10T02:55:14.508Z,36.70
2022-11-10T02:57:46.175Z,39.40
2022-11-10T03:00:19.512Z,37.80
2022-11-10T03:02:56.428Z,39.00
2022-11-10T03:05:28.064Z,39.40
2022-11-10T03:08:01.603Z,37.10
2022-11-10T03:10:34.284Z,37.20
2022-11-10T03:13:06.838Z,38.30
2022-11-10T03:15:38.639Z,36.80
2022-11-10T03:18:10.336Z,39.80
2022-11-10T03:20:42.250Z,38.30
2022-11-10T03:23:14.141Z,39.40
2022-11-10T03:25:46.359Z,39.10
2022-11-10T03:28:18.335Z,38.30
2022-11-10T03:30:49.987Z,38.60
2022-11-10T03:33:21.931Z,40.60
2022-11-10T03:35:54.015Z,37.80
2022-11-10T03:38:25.703Z,37.40
2022-11-10T03:41:18.189Z,39.10
2022-11-10T03:43:49.066Z,37.70
2022-11-10T03:46:20.877Z,37.60
2022-11-10T03:48:53.827Z,39.20
2022-11-10T03:51:25.535Z,39.70
2022-11-10T03:53:57.267Z,40.50
2022-11-10T03:56:28.996Z,38.40
2022-11-10T03:59:04.029Z,37.50
2022-11-10T04:01:35.975Z,38.10
2022-11-10T04:04:32.007Z,40.40
2022-11-10T04:07:21.329Z,36.10
2022-11-10T04:09:53.048Z,39.20
2022-11-10T04:12:42.554Z,40.20
2022-11-10T04:15:32.769Z,38.00
2022-11-10T04:18:18.709Z,39.00
2022-11-10T04:20:51.325Z,39.40
2022-11-10T04:23:31.622Z,38.00
2022-11-10T04:26:23.586Z,37.20
2022-11-10T04:28:57.480Z,38.10
2022-11-10T04:31:31.100Z,38.70
2022-11-10T04:34:03.055Z,38.00
2022-11-10T04:36:36.950Z,38.70
2022-11-10T04:39:09.518Z,40.60
2022-11-10T04:41:41.462Z,41.90
2022-11-10T04:44:13.175Z,42.00
2022-11-10T04:46:45.646Z,40.20
2022-11-10T04:49:19.022Z,41.70
2022-11-10T04:51:50.960Z,40.70
2022-11-10T04:54:22.768Z,41.00
2022-11-10T04:56:54.444Z,38.80
2022-11-10T04:59:26.184Z,42.10
2022-11-10T05:01:57.846Z,44.40
2022-11-10T05:04:29.606Z,42.40
2022-11-10T05:07:01.357Z,43.60
2022-11-10T05:09:33.117Z,40.80
2022-11-10T05:12:05.161Z,40.60
2022-11-10T05:14:36.944Z,43.70
2022-11-10T05:17:09.813Z,42.10
2022-11-10T05:19:41.499Z,44.40
2022-11-10T05:22:13.250Z,43.40
2022-11-10T05:24:44.955Z,43.30
2022-11-10T05:27:16.668Z,43.90
2022-11-10T05:29:48.428Z,45.20
2022-11-10T05:32:20.128Z,44.10
2022-11-10T05:34:51.838Z,43.20
2022-11-10T05:37:23.638Z,44.20
2022-11-10T05:39:55.472Z,44.80
2022-11-10T05:42:28.124Z,43.30
2022-11-10T05:44:59.997Z,46.00
2022-11-10T05:47:33.083Z,43.90
2022-11-10T05:50:05.806Z,46.90
2022-11-10T05:52:40.487Z,45.60
2022-11-10T05:55:13.559Z,46.30
2022-11-10T05:57:47.339Z,45.00
2022-11-10T06:00:22.477Z,45.80
2022-11-10T06:03:02.452Z,44.70
2022-11-10T06:05:36.253Z,45.40
2022-11-10T06:10:40.060Z,46.10
2022-11-10T06:13:12.126Z,44.80
2022-11-10T06:15:49.092Z,42.70
2022-11-10T06:18:22.408Z,46.10
2022-11-10T06:20:54.128Z,45.10
2022-11-10T06:23:26.025Z,44.30
2022-11-10T06:25:57.729Z,49.20
2022-11-10T06:28:29.480Z,49.30
2022-11-10T06:31:01.292Z,47.60
2022-11-10T06:33:32.969Z,50.10
2022-11-10T06:36:04.943Z,49.80
2022-11-10T06:38:36.727Z,47.20
2022-11-10T06:41:08.684Z,51.00
2022-11-10T06:43:40.460Z,49.10
2022-11-10T06:46:12.242Z,55.40
2022-11-10T06:48:43.953Z,52.70
2022-11-10T06:51:15.679Z,50.30
2022-11-10T06:53:47.567Z,49.20
2022-11-10T06:56:19.358Z,48.80
2022-11-10T06:58:51.104Z,50.40
2022-11-10T07:01:26.499Z,51.60
2022-11-10T07:04:18.655Z,53.60
2022-11-10T07:06:50.377Z,50.00
2022-11-10T07:09:22.118Z,51.60
2022-11-10T07:11:53.795Z,59.70
2022-11-10T07:14:25.510Z,49.40
2022-11-10T07:16:57.297Z,50.80
2022-11-10T07:19:29.340Z,48.20
2022-11-10T07:22:01.928Z,46.30
2022-11-10T07:24:34.422Z,45.20
2022-11-10T07:27:07.839Z,47.80
2022-11-10T07:29:39.965Z,48.20
2022-11-10T07:32:11.727Z,48.80
2022-11-10T07:34:43.489Z,47.80
2022-11-10T07:37:15.246Z,45.50
2022-11-10T07:39:46.948Z,43.90
2022-11-10T07:42:18.671Z,47.80
2022-11-10T07:44:50.613Z,49.40
2022-11-10T07:47:22.698Z,50.40
2022-11-10T07:49:54.568Z,49.10
2022-11-10T07:52:26.431Z,50.00
2022-11-10T07:54:58.201Z,51.00
2022-11-10T07:57:29.918Z,50.20
2022-11-10T08:00:02.043Z,50.20
2022-11-10T08:02:34.113Z,47.80
2022-11-10T08:05:06.332Z,47.70
2022-11-10T08:07:38.164Z,51.70
2022-11-10T08:10:11.495Z,48.60
2022-11-10T08:12:43.266Z,48.60
2022-11-10T08:15:15.686Z,49.90
2022-11-10T08:17:49.539Z,48.40
2022-11-10T08:22:57.294Z,47.70
2022-11-10T08:25:34.486Z,45.60
2022-11-10T08:28:09.237Z,53.80
2022-11-10T08:33:14.264Z,51.10
2022-11-10T08:35:47.570Z,47.40
2022-11-10T08:38:20.994Z,51.00
2022-11-10T08:40:52.789Z,47.00
2022-11-10T08:43:25.570Z,48.70
2022-11-10T08:45:58.664Z,53.20
2022-11-10T08:48:30.778Z,52.30
2022-11-10T08:51:04.552Z,58.00
2022-11-10T08:56:07.294Z,51.30
2022-11-10T08:58:47.469Z,51.20
2022-11-10T09:01:21.417Z,51.50
2022-11-10T09:03:53.153Z,47.90
2022-11-10T09:06:25.023Z,50.50
2022-11-10T09:08:56.709Z,49.50
2022-11-10T09:11:28.508Z,53.50
2022-11-10T09:14:00.342Z,52.20
2022-11-10T09:16:33.251Z,54.90
2022-11-10T09:19:05.083Z,57.10
2022-11-10T09:21:37.295Z,54.60
2022-11-10T09:24:10.194Z,55.20
2022-11-10T09:26:45.532Z,55.10
2022-11-10T09:29:17.433Z,55.50
2022-11-10T09:31:49.201Z,60.60
2022-11-10T09:34:20.998Z,56.80
2022-11-10T09:36:52.942Z,54.10
2022-11-10T09:39:24.610Z,56.90
2022-11-10T09:41:56.522Z,56.70
2022-11-10T09:44:31.977Z,55.10
2022-11-10T09:47:12.169Z,57.40
2022-11-10T09:49:51.264Z,54.30
2022-11-10T09:52:25.874Z,55.70
2022-11-10T09:55:04.463Z,50.30
2022-11-10T09:57:36.538Z,50.30
2022-11-10T10:00:11.500Z,49.90
2022-11-10T10:02:46.774Z,52.00
2022-11-10T10:05:46.597Z,48.50
2022-11-10T10:08:27.177Z,50.00
2022-11-10T10:11:08.737Z,51.00
2022-11-10T10:13:58.067Z,47.40
2022-11-10T10:16:38.575Z,45.20
2022-11-10T10:19:21.904Z,46.30
2022-11-10T10:22:11.722Z,44.50
2022-11-10T10:24:43.340Z,44.90
2022-11-10T10:27:25.864Z,43.50
2022-11-10T10:29:57.563Z,38.80
2022-11-10T10:32:29.935Z,38.90
2022-11-10T10:35:01.721Z,37.60
2022-11-10T10:37:45.072Z,35.60
2022-11-10T10:40:22.027Z,38.70
2022-11-10T10:42:54.747Z,36.20
2022-11-10T10:45:29.087Z,36.20
2022-11-10T10:48:01.642Z,37.80
2022-11-10T10:50:36.831Z,34.20
2022-11-10T10:53:20.899Z,34.10
2022-11-10T10:58:28.608Z,31.60
2022-11-10T11:01:06.249Z,29.20
2022-11-10T11:03:45.934Z,30.20
2022-11-10T11:06:27.194Z,29.90
2022-11-10T11:09:07.937Z,29.00
2022-11-10T11:11:42.001Z,30.20
2022-11-10T11:14:23.194Z,29.90
2022-11-10T11:16:57.164Z,29.70
2022-11-10T11:19:32.101Z,29.60
2022-11-10T11:22:28.760Z,29.90
2022-11-10T11:25:12.135Z,27.70
2022-11-10T11:27:55.390Z,29.00
2022-11-10T11:30:32.856Z,29.80
2022-11-10T11:33:33.679Z,29.10
2022-11-10T11:36:16.095Z,29.10
2022-11-10T11:38:58.649Z,28.10
2022-11-10T11:41:41.322Z,28.10
2022-11-10T11:44:41.781Z,28.30
2022-11-10T11:47:29.585Z,26.50
2022-11-10T11:50:16.548Z,24.90
2022-11-10T11:52:58.875Z,23.60
2022-11-10T11:55:56.718Z,23.80
2022-11-10T11:58:41.222Z,23.70
2022-11-10T12:01:35.641Z,24.10
2022-11-10T12:07:09.817Z,23.50
2022-11-10T12:09:48.110Z,21.70
2022-11-10T12:12:38.415Z,25.10
2022-11-10T12:15:24.015Z,21.10
2022-11-10T12:18:04.666Z,22.90
2022-11-10T12:20:49.078Z,19.50
2022-11-10T12:23:30.593Z,19.80
2022-11-10T12:26:14.914Z,20.70
2022-11-10T12:28:51.220Z,21.90
2022-11-10T12:31:27.557Z,21.90
2022-11-10T12:34:02.972Z,21.30
2022-11-10T12:36:35.655Z,20.30
2022-11-10T12:39:15.518Z,20.00
2022-11-10T12:41:50.891Z,24.00
2022-11-10T12:44:27.353Z,22.00
2022-11-10T12:47:03.411Z,20.70
2022-11-10T12:49:38.011Z,24.80
2022-11-10T12:52:16.386Z,23.10
2022-11-10T12:54:48.972Z,20.60
2022-11-10T12:57:24.202Z,20.30
2022-11-10T13:00:01.895Z,18.50
2022-11-10T13:02:40.422Z,18.70
2022-11-10T13:05:42.264Z,22.10
2022-11-10T13:08:27.193Z,17.20
2022-11-10T13:11:03.094Z,19.10
2022-11-10T13:13:45.480Z,16.40
2022-11-10T13:19:50.653Z,14.90
2022-11-10T13:22:37.432Z,16.50
2022-11-10T13:25:43.663Z,16.00
2022-11-10T13:28:15.373Z,13.80
2022-11-10T13:30:48.852Z,11.90
2022-11-10T13:33:38.721Z,12.00
2022-11-10T13:36:11.227Z,12.30
2022-11-10T13:38:44.324Z,11.30
2022-11-10T13:41:23.615Z,10.40
2022-11-10T13:43:57.010Z,11.20
2022-11-10T13:46:37.759Z,13.30
2022-11-10T13:49:48.575Z,9.30
2022-11-10T13:52:26.721Z,9.50
2022-11-10T13:55:16.169Z,11.40
2022-11-10T13:58:01.834Z,9.80
2022-11-10T14:00:36.131Z,10.70
2022-11-10T14:03:09.131Z,11.20
2022-11-10T14:06:13.715Z,10.30
2022-11-10T14:08:54.201Z,11.20
2022-11-10T14:11:35.799Z,9.60
2022-11-10T14:14:18.619Z,11.10
2022-11-10T14:16:53.067Z,10.60
2022-11-10T14:19:38.572Z,10.80
2022-11-10T14:22:21.850Z,15.10
2022-11-10T14:25:00.835Z,12.50
2022-11-10T14:27:36.169Z,11.40
2022-11-10T14:30:20.379Z,13.40
2022-11-10T14:33:00.583Z,11.00
2022-11-10T14:35:35.879Z,11.90
2022-11-10T14:38:20.650Z,10.10
2022-11-10T14:40:55.020Z,11.80
2022-11-10T14:43:31.318Z,11.60
2022-11-10T14:46:04.253Z,12.90
2022-11-10T14:48:38.490Z,13.10
2022-11-10T14:51:14.677Z,13.90
2022-11-10T14:53:51.923Z,12.50
2022-11-10T14:56:27.960Z,12.70
2022-11-10T14:59:02.670Z,11.40
2022-11-10T15:01:39.058Z,13.50
2022-11-10T15:04:15.797Z,12.00
2022-11-10T15:06:50.689Z,12.90
2022-11-10T15:09:28.597Z,10.40
2022-11-10T15:12:20.569Z,11.30
2022-11-10T15:15:01.051Z,12.40
2022-11-10T15:17:50.620Z,11.30
2022-11-10T15:20:41.014Z,11.50
2022-11-10T15:23:23.378Z,12.70
2022-11-10T15:25:55.069Z,11.30
2022-11-10T15:28:31.199Z,12.70
2022-11-10T15:31:05.902Z,12.30
2022-11-10T15:33:40.225Z,14.80
2022-11-10T15:36:28.572Z,13.40
2022-11-10T15:39:20.201Z,14.80
2022-11-10T15:42:01.309Z,16.20
2022-11-10T15:44:32.906Z,14.30
2022-11-10T15:47:04.548Z,20.60
2022-11-10T15:49:38.639Z,23.10
2022-11-10T15:52:16.494Z,19.30
2022-11-10T15:54:50.411Z,24.10
2022-11-10T15:59:52.226Z,32.70
2022-11-10T16:02:25.960Z,33.00
2022-11-10T16:04:59.988Z,28.80
2022-11-10T16:07:32.051Z,27.10
2022-11-10T16:10:05.198Z,30.40
2022-11-10T16:12:37.943Z,26.50
2022-11-10T16:15:18.300Z,37.20
2022-11-10T16:17:50.721Z,48.00
2022-11-10T16:20:22.688Z,52.40
2022-11-10T16:22:54.401Z,57.50
2022-11-10T16:25:28.028Z,59.50
2022-11-10T16:28:02.570Z,54.60
2022-11-10T16:30:34.817Z,64.90
2022-11-10T16:33:06.503Z,66.10
2022-11-10T16:35:38.783Z,51.40
2022-11-10T16:38:19.427Z,47.20
2022-11-10T16:40:56.575Z,43.50
2022-11-10T16:43:29.572Z,43.70
2022-11-10T16:46:03.829Z,43.50
2022-11-10T16:48:37.610Z,32.30
2022-11-10T16:53:41.121Z,35.90
2022-11-10T16:56:20.779Z,32.50
2022-11-10T16:58:52.482Z,35.20
2022-11-10T17:01:27.532Z,37.60
2022-11-10T17:04:01.530Z,34.30
2022-11-10T17:06:33.599Z,34.00
2022-11-10T17:09:10.624Z,32.10
2022-11-10T17:11:42.346Z,31.40
2022-11-10T17:14:16.488Z,34.20
2022-11-10T17:16:49.931Z,28.60
2022-11-10T17:19:24.511Z,30.30
2022-11-10T17:21:56.929Z,31.40
2022-11-10T17:24:28.661Z,30.50
2022-11-10T17:27:00.912Z,28.10
2022-11-10T17:29:32.628Z,35.00
2022-11-10T17:32:04.546Z,39.70
2022-11-10T17:34:36.396Z,46.10
2022-11-10T17:37:10.522Z,71.40
2022-11-10T17:39:42.517Z,79.00
2022-11-10T17:42:15.882Z,77.60
2022-11-10T17:44:47.622Z,95.80
2022-11-10T17:47:19.267Z,108.50
2022-11-10T17:49:51.062Z,106.90
2022-11-10T17:52:23.789Z,101.40
2022-11-10T17:54:55.476Z,90.90
2022-11-10T17:57:27.257Z,117.80
2022-11-10T17:59:58.975Z,121.40
2022-11-10T18:02:30.991Z,115.30
2022-11-10T18:05:02.774Z,107.40
2022-11-10T18:07:34.669Z,107.20
2022-11-10T18:10:08.737Z,114.80
2022-11-10T18:12:40.709Z,110.10
2022-11-10T18:15:15.339Z,106.80
2022-11-10T18:17:47.143Z,94.90
2022-11-10T18:20:19.209Z,96.30
2022-11-10T18:22:51.105Z,87.00
2022-11-10T18:25:22.889Z,84.10
2022-11-10T18:27:54.591Z,82.00
2022-11-10T18:30:29.771Z,70.30
2022-11-10T18:33:06.049Z,68.00
2022-11-10T18:35:40.129Z,61.50
2022-11-10T18:38:14.438Z,62.80
2022-11-10T18:40:46.054Z,60.90
2022-11-10T18:43:17.870Z,60.30
2022-11-10T18:45:53.282Z,57.40
2022-11-10T18:48:30.136Z,55.90
2022-11-10T18:51:07.748Z,50.70
2022-11-10T18:53:39.667Z,49.50
2022-11-10T18:56:11.786Z,49.80
2022-11-10T18:58:43.887Z,45.80
2022-11-10T19:01:15.711Z,51.50
2022-11-10T19:03:47.530Z,46.30
2022-11-10T19:06:21.208Z,47.50
2022-11-10T19:08:52.848Z,44.30
2022-11-10T19:11:24.542Z,47.10
2022-11-10T19:13:58.438Z,43.80
2022-11-10T19:16:31.040Z,47.60
2022-11-10T19:19:02.968Z,47.30
2022-11-10T19:21:34.778Z,49.80
2022-11-10T19:24:07.766Z,49.90
2022-11-10T19:26:39.764Z,58.20
2022-11-10T19:29:11.411Z,57.10
2022-11-10T19:31:43.732Z,61.30
2022-11-10T19:34:18.869Z,61.50
2022-11-10T19:36:50.593Z,68.10
2022-11-10T19:39:23.502Z,84.10
2022-11-10T19:41:55.251Z,95.10
2022-11-10T19:44:26.918Z,120.20
2022-11-10T19:46:58.573Z,165.50
2022-11-10T19:49:30.248Z,183.80
2022-11-10T19:52:01.918Z,188.40
2022-11-10T19:54:33.663Z,178.70
2022-11-10T19:57:06.722Z,165.70
2022-11-10T19:59:39.445Z,153.90
2022-11-10T20:02:13.485Z,137.90
2022-11-10T20:04:59.459Z,125.30
2022-11-10T20:07:48.748Z,106.20
2022-11-10T20:10:20.650Z,138.40
2022-11-10T20:12:52.347Z,153.90
2022-11-10T20:15:24.133Z,151.20
2022-11-10T20:17:55.766Z,139.70
2022-11-10T20:20:28.073Z,136.30
2022-11-10T20:23:03.305Z,124.70
2022-11-10T20:25:35.790Z,127.10
2022-11-10T20:28:07.846Z,165.00
2022-11-10T20:30:43.926Z,160.50
2022-11-10T20:33:15.617Z,145.10
2022-11-10T20:35:47.356Z,156.70
2022-11-10T20:38:19.101Z,147.40
2022-11-10T20:40:50.907Z,150.10
2022-11-10T20:43:22.908Z,133.70
2022-11-10T20:45:55.963Z,118.00
2022-11-10T20:48:29.947Z,117.00
2022-11-10T20:51:02.737Z,108.50
2022-11-10T20:53:34.511Z,113.80
2022-11-10T20:56:06.840Z,99.10
2022-11-10T20:58:39.090Z,98.50
2022-11-10T21:01:12.924Z,98.80
2022-11-10T21:03:44.711Z,88.70
2022-11-10T21:06:16.541Z,90.20
2022-11-10T21:08:48.284Z,105.00
2022-11-10T21:11:33.987Z,95.50
2022-11-10T21:14:05.918Z,105.60
2022-11-10T21:16:39.921Z,96.60
2022-11-10T21:19:11.607Z,106.80
2022-11-10T21:21:43.649Z,97.90
2022-11-10T21:24:15.446Z,100.20
2022-11-10T21:26:47.200Z,103.50
2022-11-10T21:29:18.828Z,108.50
2022-11-10T21:31:50.612Z,95.10
2022-11-10T21:34:22.245Z,95.70
2022-11-10T21:36:53.908Z,101.80
2022-11-10T21:39:25.538Z,109.10
2022-11-10T21:41:57.455Z,119.70
2022-11-10T21:44:29.097Z,119.60
2022-11-10T21:47:00.817Z,125.40
2022-11-10T21:49:32.982Z,146.00
2022-11-10T21:52:04.678Z,143.50
2022-11-10T21:54:36.319Z,144.90
2022-11-10T21:57:08.169Z,149.80
2022-11-10T21:59:39.923Z,169.30
2022-11-10T22:02:14.675Z,247.60
2022-11-10T22:04:47.359Z,212.50
2022-11-10T22:07:25.451Z,173.90
2022-11-10T22:10:15.902Z,175.40
2022-11-10T22:13:05.369Z,152.40
2022-11-10T22:16:00.042Z,142.60
2022-11-10T22:18:42.295Z,115.00
2022-11-10T22:21:14.150Z,106.70
2022-11-10T22:24:03.521Z,114.70
2022-11-10T22:26:35.226Z,106.80
2022-11-10T22:29:06.966Z,118.20
2022-11-10T22:31:38.830Z,122.60
2022-11-10T22:34:10.552Z,133.10
2022-11-10T22:36:42.382Z,134.70
2022-11-10T22:39:14.379Z,136.70
2022-11-10T22:42:04.311Z,135.40
2022-11-10T22:44:36.109Z,131.70
2022-11-10T22:47:07.974Z,132.80
2022-11-10T22:49:39.550Z,132.00
2022-11-10T22:52:11.549Z,141.80
2022-11-10T22:54:44.319Z,134.50
2022-11-10T22:57:16.026Z,133.30
2022-11-10T22:59:47.696Z,132.10
2022-11-10T23:02:19.607Z,127.80
2022-11-10T23:04:51.246Z,124.60
2022-11-10T23:07:23.034Z,117.90
2022-11-10T23:09:54.713Z,136.00
2022-11-10T23:12:26.315Z,138.40
2022-11-10T23:14:58.020Z,150.80
2022-11-10T23:17:29.924Z,137.90
2022-11-10T23:20:01.831Z,143.60
2022-11-10T23:22:33.636Z,143.60
2022-11-10T23:25:05.923Z,132.50
2022-11-10T23:27:37.975Z,131.40
2022-11-10T23:30:11.911Z,125.70
2022-11-10T23:32:43.570Z,126.80
2022-11-10T23:35:15.235Z,131.10
2022-11-10T23:37:46.934Z,120.10
2022-11-10T23:40:18.949Z,117.60
2022-11-10T23:42:50.596Z,121.80
2022-11-10T23:45:22.380Z,124.90
2022-11-10T23:47:54.108Z,126.30
2022-11-10T23:50:25.798Z,136.90
2022-11-10T23:52:57.459Z,137.90
2022-11-10T23:55:29.202Z,156.30
2022-11-10T23:58:01.037Z,152.70
